sensor_id;sensor_type;location;lat;lon;timestamp;P1;durP1;ratioP1;P2;durP2;ratioP2
25950;SDS011;13748;52.240;6.002;2022-10-04T00:01:31;15.93;;;7.27;;
25950;SDS011;13748;52.240;6.002;2022-10-04T00:04:17;12.93;;;6.80;;
25950;SDS011;13748;52.240;6.002;2022-10-04T00:06:46;13.10;;;6.77;;
25950;SDS011;13748;52.240;6.002;2022-10-04T00:09:23;11.33;;;6.57;;
25950;SDS011;13748;52.240;6.002;2022-10-04T00:11:56;10.70;;;5.87;;
25950;SDS011;13748;52.240;6.002;2022-10-04T00:14:25;18.53;;;7.57;;
25950;SDS011;13748;52.240;6.002;2022-10-04T00:16:56;13.43;;;6.10;;
25950;SDS011;13748;52.240;6.002;2022-10-04T00:19:35;12.87;;;5.83;;
25950;SDS011;13748;52.240;6.002;2022-10-04T00:22:33;15.87;;;6.27;;
25950;SDS011;13748;52.240;6.002;2022-10-04T00:27:36;12.43;;;5.73;;
25950;SDS011;13748;52.240;6.002;2022-10-04T00:37:56;13.10;;;5.90;;
25950;SDS011;13748;52.240;6.002;2022-10-04T00:40:26;15.40;;;6.13;;
25950;SDS011;13748;52.240;6.002;2022-10-04T00:43:00;12.27;;;6.57;;
25950;SDS011;13748;52.240;6.002;2022-10-04T00:45:52;11.57;;;5.97;;
25950;SDS011;13748;52.240;6.002;2022-10-04T00:51:07;15.57;;;7.10;;
25950;SDS011;13748;52.240;6.002;2022-10-04T00:53:47;12.83;;;6.63;;
25950;SDS011;13748;52.240;6.002;2022-10-04T00:56:43;13.00;;;6.17;;
25950;SDS011;13748;52.240;6.002;2022-10-04T01:01:55;11.80;;;5.40;;
25950;SDS011;13748;52.240;6.002;2022-10-04T01:04:38;15.63;;;6.27;;
25950;SDS011;13748;52.240;6.002;2022-10-04T01:07:25;8.03;;;5.40;;
25950;SDS011;13748;52.240;6.002;2022-10-04T01:09:56;10.23;;;5.40;;
25950;SDS011;13748;52.240;6.002;2022-10-04T01:15:41;8.47;;;5.57;;
25950;SDS011;13748;52.240;6.002;2022-10-04T01:28:59;11.90;;;6.03;;
25950;SDS011;13748;52.240;6.002;2022-10-04T01:31:33;14.83;;;6.00;;
25950;SDS011;13748;52.240;6.002;2022-10-04T01:34:02;13.43;;;6.77;;
25950;SDS011;13748;52.240;6.002;2022-10-04T01:36:31;11.43;;;7.30;;
25950;SDS011;13748;52.240;6.002;2022-10-04T01:39:02;10.17;;;6.40;;
25950;SDS011;13748;52.240;6.002;2022-10-04T01:44:10;13.63;;;6.67;;
25950;SDS011;13748;52.240;6.002;2022-10-04T01:46:52;15.43;;;7.80;;
25950;SDS011;13748;52.240;6.002;2022-10-04T01:49:22;13.10;;;7.23;;
25950;SDS011;13748;52.240;6.002;2022-10-04T01:51:57;20.73;;;7.47;;
25950;SDS011;13748;52.240;6.002;2022-10-04T01:54:34;15.37;;;7.40;;
25950;SDS011;13748;52.240;6.002;2022-10-04T01:57:10;15.90;;;7.70;;
25950;SDS011;13748;52.240;6.002;2022-10-04T01:59:43;15.97;;;7.10;;
25950;SDS011;13748;52.240;6.002;2022-10-04T02:02:21;19.90;;;7.93;;
25950;SDS011;13748;52.240;6.002;2022-10-04T02:04:56;15.00;;;7.13;;
25950;SDS011;13748;52.240;6.002;2022-10-04T02:07:27;14.17;;;8.03;;
25950;SDS011;13748;52.240;6.002;2022-10-04T02:09:58;17.90;;;7.50;;
25950;SDS011;13748;52.240;6.002;2022-10-04T02:12:30;15.60;;;7.37;;
25950;SDS011;13748;52.240;6.002;2022-10-04T02:14:59;14.67;;;7.23;;
25950;SDS011;13748;52.240;6.002;2022-10-04T02:17:32;20.23;;;8.57;;
25950;SDS011;13748;52.240;6.002;2022-10-04T02:20:07;15.13;;;8.13;;
25950;SDS011;13748;52.240;6.002;2022-10-04T02:22:38;17.07;;;8.23;;
25950;SDS011;13748;52.240;6.002;2022-10-04T02:25:06;15.03;;;8.20;;
25950;SDS011;13748;52.240;6.002;2022-10-04T02:27:34;15.03;;;8.00;;
25950;SDS011;13748;52.240;6.002;2022-10-04T02:30:03;15.40;;;8.53;;
25950;SDS011;13748;52.240;6.002;2022-10-04T02:32:32;14.70;;;8.57;;
25950;SDS011;13748;52.240;6.002;2022-10-04T02:35:18;15.93;;;8.33;;
25950;SDS011;13748;52.240;6.002;2022-10-04T02:37:47;18.10;;;8.37;;
25950;SDS011;13748;52.240;6.002;2022-10-04T02:40:23;11.83;;;7.43;;
25950;SDS011;13748;52.240;6.002;2022-10-04T02:45:28;15.57;;;8.53;;
25950;SDS011;13748;52.240;6.002;2022-10-04T02:48:12;15.93;;;9.20;;
25950;SDS011;13748;52.240;6.002;2022-10-04T02:50:47;15.33;;;8.43;;
25950;SDS011;13748;52.240;6.002;2022-10-04T02:53:20;21.93;;;10.50;;
25950;SDS011;13748;52.240;6.002;2022-10-04T02:55:55;19.60;;;10.73;;
25950;SDS011;13748;52.240;6.002;2022-10-04T02:58:23;21.77;;;9.53;;
25950;SDS011;13748;52.240;6.002;2022-10-04T03:00:58;19.13;;;10.40;;
25950;SDS011;13748;52.240;6.002;2022-10-04T03:03:29;20.40;;;10.70;;
25950;SDS011;13748;52.240;6.002;2022-10-04T03:06:03;18.00;;;9.73;;
25950;SDS011;13748;52.240;6.002;2022-10-04T03:08:47;23.20;;;10.33;;
25950;SDS011;13748;52.240;6.002;2022-10-04T03:11:16;16.17;;;10.60;;
25950;SDS011;13748;52.240;6.002;2022-10-04T03:13:48;19.43;;;11.33;;
25950;SDS011;13748;52.240;6.002;2022-10-04T03:16:20;18.67;;;11.60;;
25950;SDS011;13748;52.240;6.002;2022-10-04T03:18:49;18.57;;;12.03;;
25950;SDS011;13748;52.240;6.002;2022-10-04T03:21:19;22.03;;;12.20;;
25950;SDS011;13748;52.240;6.002;2022-10-04T03:23:48;20.93;;;11.73;;
25950;SDS011;13748;52.240;6.002;2022-10-04T03:26:23;28.30;;;12.50;;
25950;SDS011;13748;52.240;6.002;2022-10-04T03:28:55;20.60;;;12.13;;
25950;SDS011;13748;52.240;6.002;2022-10-04T03:31:23;23.23;;;12.23;;
25950;SDS011;13748;52.240;6.002;2022-10-04T03:33:53;21.63;;;12.97;;
25950;SDS011;13748;52.240;6.002;2022-10-04T03:36:22;22.67;;;13.50;;
25950;SDS011;13748;52.240;6.002;2022-10-04T03:38:52;26.10;;;14.23;;
25950;SDS011;13748;52.240;6.002;2022-10-04T03:41:22;24.93;;;13.83;;
25950;SDS011;13748;52.240;6.002;2022-10-04T03:43:51;22.43;;;13.67;;
25950;SDS011;13748;52.240;6.002;2022-10-04T03:46:20;23.47;;;12.97;;
25950;SDS011;13748;52.240;6.002;2022-10-04T03:48:49;21.07;;;13.93;;
25950;SDS011;13748;52.240;6.002;2022-10-04T03:51:19;24.90;;;13.13;;
25950;SDS011;13748;52.240;6.002;2022-10-04T03:53:49;20.07;;;13.57;;
25950;SDS011;13748;52.240;6.002;2022-10-04T03:56:25;20.90;;;13.83;;
25950;SDS011;13748;52.240;6.002;2022-10-04T03:58:52;22.57;;;15.40;;
25950;SDS011;13748;52.240;6.002;2022-10-04T04:01:34;22.80;;;15.40;;
25950;SDS011;13748;52.240;6.002;2022-10-04T04:09:44;23.30;;;14.13;;
25950;SDS011;13748;52.240;6.002;2022-10-04T04:12:17;30.30;;;15.77;;
25950;SDS011;13748;52.240;6.002;2022-10-04T04:14:47;26.90;;;16.03;;
25950;SDS011;13748;52.240;6.002;2022-10-04T04:19:52;28.10;;;16.87;;
25950;SDS011;13748;52.240;6.002;2022-10-04T04:22:22;23.87;;;14.47;;
25950;SDS011;13748;52.240;6.002;2022-10-04T04:24:52;29.30;;;16.50;;
25950;SDS011;13748;52.240;6.002;2022-10-04T04:27:19;29.87;;;15.97;;
25950;SDS011;13748;52.240;6.002;2022-10-04T04:29:54;29.37;;;16.63;;
25950;SDS011;13748;52.240;6.002;2022-10-04T04:32:24;29.03;;;15.00;;
25950;SDS011;13748;52.240;6.002;2022-10-04T04:34:57;20.90;;;14.00;;
25950;SDS011;13748;52.240;6.002;2022-10-04T04:37:35;23.53;;;14.97;;
25950;SDS011;13748;52.240;6.002;2022-10-04T04:40:20;25.60;;;16.13;;
25950;SDS011;13748;52.240;6.002;2022-10-04T04:42:50;27.70;;;15.67;;
25950;SDS011;13748;52.240;6.002;2022-10-04T04:45:19;33.13;;;17.60;;
25950;SDS011;13748;52.240;6.002;2022-10-04T04:47:51;32.70;;;17.10;;
25950;SDS011;13748;52.240;6.002;2022-10-04T04:50:22;34.33;;;17.73;;
25950;SDS011;13748;52.240;6.002;2022-10-04T04:53:07;36.50;;;18.60;;
25950;SDS011;13748;52.240;6.002;2022-10-04T04:56:03;32.10;;;17.33;;
25950;SDS011;13748;52.240;6.002;2022-10-04T04:58:42;28.30;;;17.90;;
25950;SDS011;13748;52.240;6.002;2022-10-04T05:01:28;34.03;;;19.43;;
25950;SDS011;13748;52.240;6.002;2022-10-04T05:06:40;31.93;;;18.43;;
25950;SDS011;13748;52.240;6.002;2022-10-04T05:09:27;30.70;;;18.27;;
25950;SDS011;13748;52.240;6.002;2022-10-04T05:11:55;28.33;;;17.60;;
25950;SDS011;13748;52.240;6.002;2022-10-04T05:14:29;38.67;;;19.77;;
25950;SDS011;13748;52.240;6.002;2022-10-04T05:16:56;37.97;;;20.33;;
25950;SDS011;13748;52.240;6.002;2022-10-04T05:19:26;32.73;;;18.53;;
25950;SDS011;13748;52.240;6.002;2022-10-04T05:22:00;34.50;;;19.97;;
25950;SDS011;13748;52.240;6.002;2022-10-04T05:24:33;36.07;;;20.73;;
25950;SDS011;13748;52.240;6.002;2022-10-04T05:27:06;31.20;;;21.13;;
25950;SDS011;13748;52.240;6.002;2022-10-04T05:30:01;37.03;;;21.00;;
25950;SDS011;13748;52.240;6.002;2022-10-04T05:35:25;34.27;;;20.13;;
25950;SDS011;13748;52.240;6.002;2022-10-04T05:40:31;38.10;;;21.83;;
25950;SDS011;13748;52.240;6.002;2022-10-04T05:43:00;44.07;;;21.97;;
25950;SDS011;13748;52.240;6.002;2022-10-04T05:45:27;36.63;;;22.77;;
25950;SDS011;13748;52.240;6.002;2022-10-04T05:47:57;45.53;;;25.27;;
25950;SDS011;13748;52.240;6.002;2022-10-04T05:50:30;44.70;;;23.47;;
25950;SDS011;13748;52.240;6.002;2022-10-04T06:06:51;42.73;;;22.33;;
25950;SDS011;13748;52.240;6.002;2022-10-04T15:34:35;11.30;;;3.80;;
25950;SDS011;13748;52.240;6.002;2022-10-04T15:39:58;6.78;;;3.88;;
25950;SDS011;13748;52.240;6.002;2022-10-04T15:42:36;6.60;;;4.05;;
25950;SDS011;13748;52.240;6.002;2022-10-04T15:50:30;8.73;;;4.30;;
25950;SDS011;13748;52.240;6.002;2022-10-04T15:56:00;7.43;;;3.70;;
25950;SDS011;13748;52.240;6.002;2022-10-04T16:04:38;5.85;;;3.58;;
25950;SDS011;13748;52.240;6.002;2022-10-04T16:10:17;6.78;;;3.35;;
25950;SDS011;13748;52.240;6.002;2022-10-04T16:15:43;7.43;;;3.72;;
25950;SDS011;13748;52.240;6.002;2022-10-04T16:29:24;7.55;;;3.72;;
25950;SDS011;13748;52.240;6.002;2022-10-04T16:32:00;8.00;;;3.97;;
25950;SDS011;13748;52.240;6.002;2022-10-04T16:34:50;6.60;;;3.67;;
25950;SDS011;13748;52.240;6.002;2022-10-04T16:37:38;5.47;;;3.53;;
25950;SDS011;13748;52.240;6.002;2022-10-04T16:42:53;5.35;;;4.10;;
25950;SDS011;13748;52.240;6.002;2022-10-04T16:45:37;8.98;;;3.75;;
25950;SDS011;13748;52.240;6.002;2022-10-04T16:48:24;10.10;;;4.65;;
25950;SDS011;13748;52.240;6.002;2022-10-04T17:13:20;10.98;;;5.72;;
25950;SDS011;13748;52.240;6.002;2022-10-04T17:19:11;6.50;;;5.30;;
25950;SDS011;13748;52.240;6.002;2022-10-04T17:30:17;11.77;;;5.25;;
25950;SDS011;13748;52.240;6.002;2022-10-04T17:38:29;7.68;;;4.95;;
25950;SDS011;13748;52.240;6.002;2022-10-04T17:47:03;7.68;;;5.20;;
25950;SDS011;13748;52.240;6.002;2022-10-04T17:50:32;13.98;;;5.57;;
25950;SDS011;13748;52.240;6.002;2022-10-04T17:53:35;9.80;;;5.43;;
25950;SDS011;13748;52.240;6.002;2022-10-04T17:56:33;9.57;;;5.30;;
25950;SDS011;13748;52.240;6.002;2022-10-04T17:59:24;10.13;;;5.55;;
25950;SDS011;13748;52.240;6.002;2022-10-04T18:02:08;10.07;;;5.80;;
25950;SDS011;13748;52.240;6.002;2022-10-04T18:04:38;14.05;;;6.18;;
25950;SDS011;13748;52.240;6.002;2022-10-04T18:07:20;10.85;;;5.90;;
25950;SDS011;13748;52.240;6.002;2022-10-04T18:09:53;12.07;;;5.88;;
25950;SDS011;13748;52.240;6.002;2022-10-04T18:12:26;10.27;;;5.72;;
25950;SDS011;13748;52.240;6.002;2022-10-04T18:18:10;6.97;;;5.60;;
25950;SDS011;13748;52.240;6.002;2022-10-04T18:23:34;7.97;;;6.13;;
25950;SDS011;13748;52.240;6.002;2022-10-04T18:26:05;11.57;;;6.57;;
25950;SDS011;13748;52.240;6.002;2022-10-04T18:28:45;9.30;;;5.53;;
25950;SDS011;13748;52.240;6.002;2022-10-04T18:34:13;9.82;;;6.07;;
25950;SDS011;13748;52.240;6.002;2022-10-04T18:37:04;8.30;;;5.85;;
25950;SDS011;13748;52.240;6.002;2022-10-04T18:39:45;8.50;;;5.53;;
25950;SDS011;13748;52.240;6.002;2022-10-04T18:44:57;9.27;;;5.75;;
25950;SDS011;13748;52.240;6.002;2022-10-04T18:50:03;12.30;;;6.18;;
25950;SDS011;13748;52.240;6.002;2022-10-04T19:01:14;10.63;;;6.18;;
25950;SDS011;13748;52.240;6.002;2022-10-04T19:04:16;11.52;;;6.68;;
25950;SDS011;13748;52.240;6.002;2022-10-04T19:06:51;10.50;;;6.28;;
25950;SDS011;13748;52.240;6.002;2022-10-04T19:12:01;9.25;;;6.22;;
25950;SDS011;13748;52.240;6.002;2022-10-04T19:20:22;9.75;;;6.32;;
25950;SDS011;13748;52.240;6.002;2022-10-04T19:23:16;9.07;;;6.13;;
25950;SDS011;13748;52.240;6.002;2022-10-04T19:25:49;9.05;;;5.68;;
25950;SDS011;13748;52.240;6.002;2022-10-04T19:29:02;10.48;;;6.20;;
25950;SDS011;13748;52.240;6.002;2022-10-04T19:32:04;10.15;;;6.25;;
25950;SDS011;13748;52.240;6.002;2022-10-04T19:37:18;10.63;;;5.85;;
25950;SDS011;13748;52.240;6.002;2022-10-04T19:40:12;9.45;;;6.22;;
25950;SDS011;13748;52.240;6.002;2022-10-04T19:48:13;11.73;;;6.10;;
25950;SDS011;13748;52.240;6.002;2022-10-04T19:50:52;10.93;;;5.88;;
25950;SDS011;13748;52.240;6.002;2022-10-04T19:53:28;8.40;;;5.78;;
25950;SDS011;13748;52.240;6.002;2022-10-04T19:56:02;10.05;;;6.38;;
25950;SDS011;13748;52.240;6.002;2022-10-04T20:01:14;9.05;;;5.53;;
25950;SDS011;13748;52.240;6.002;2022-10-04T20:03:43;8.57;;;6.10;;
25950;SDS011;13748;52.240;6.002;2022-10-04T20:06:21;9.90;;;5.57;;
25950;SDS011;13748;52.240;6.002;2022-10-04T20:11:49;10.27;;;5.80;;
25950;SDS011;13748;52.240;6.002;2022-10-04T20:21:55;10.50;;;5.80;;
25950;SDS011;13748;52.240;6.002;2022-10-04T20:34:53;10.05;;;5.60;;
25950;SDS011;13748;52.240;6.002;2022-10-04T20:37:37;8.18;;;5.35;;
25950;SDS011;13748;52.240;6.002;2022-10-04T20:40:51;11.50;;;5.47;;
25950;SDS011;13748;52.240;6.002;2022-10-04T20:45:45;8.55;;;5.53;;
25950;SDS011;13748;52.240;6.002;2022-10-04T20:48:21;7.70;;;5.43;;
25950;SDS011;13748;52.240;6.002;2022-10-04T20:50:49;8.65;;;5.63;;
25950;SDS011;13748;52.240;6.002;2022-10-04T20:53:22;10.07;;;6.00;;
25950;SDS011;13748;52.240;6.002;2022-10-04T20:56:07;9.98;;;5.60;;
25950;SDS011;13748;52.240;6.002;2022-10-04T20:58:36;9.60;;;5.97;;
25950;SDS011;13748;52.240;6.002;2022-10-04T21:01:25;9.40;;;5.22;;
25950;SDS011;13748;52.240;6.002;2022-10-04T21:04:18;9.02;;;5.63;;
25950;SDS011;13748;52.240;6.002;2022-10-04T21:07:11;10.18;;;6.10;;
25950;SDS011;13748;52.240;6.002;2022-10-04T21:09:49;12.85;;;6.32;;
25950;SDS011;13748;52.240;6.002;2022-10-04T21:15:02;10.13;;;6.45;;
25950;SDS011;13748;52.240;6.002;2022-10-04T21:17:33;8.13;;;5.60;;
25950;SDS011;13748;52.240;6.002;2022-10-04T21:20:02;9.40;;;5.85;;
25950;SDS011;13748;52.240;6.002;2022-10-04T21:22:31;10.35;;;5.97;;
25950;SDS011;13748;52.240;6.002;2022-10-04T21:25:03;8.75;;;5.82;;
25950;SDS011;13748;52.240;6.002;2022-10-04T21:27:50;11.60;;;5.95;;
25950;SDS011;13748;52.240;6.002;2022-10-04T21:30:18;11.68;;;7.00;;
25950;SDS011;13748;52.240;6.002;2022-10-04T21:32:45;8.48;;;6.10;;
25950;SDS011;13748;52.240;6.002;2022-10-04T21:35:12;10.90;;;6.18;;
25950;SDS011;13748;52.240;6.002;2022-10-04T21:37:40;11.63;;;6.43;;
25950;SDS011;13748;52.240;6.002;2022-10-04T21:40:07;8.25;;;6.25;;
25950;SDS011;13748;52.240;6.002;2022-10-04T21:42:34;9.95;;;6.63;;
25950;SDS011;13748;52.240;6.002;2022-10-04T21:45:01;10.85;;;6.63;;
25950;SDS011;13748;52.240;6.002;2022-10-04T21:47:28;9.85;;;5.95;;
25950;SDS011;13748;52.240;6.002;2022-10-04T21:49:55;14.10;;;7.30;;
25950;SDS011;13748;52.240;6.002;2022-10-04T21:52:23;11.15;;;6.25;;
25950;SDS011;13748;52.240;6.002;2022-10-04T21:54:50;9.07;;;6.45;;
25950;SDS011;13748;52.240;6.002;2022-10-04T21:57:17;12.13;;;6.47;;
25950;SDS011;13748;52.240;6.002;2022-10-04T21:59:44;11.13;;;6.68;;
25950;SDS011;13748;52.240;6.002;2022-10-04T22:02:13;12.13;;;5.88;;
25950;SDS011;13748;52.240;6.002;2022-10-04T22:04:40;11.73;;;6.50;;
25950;SDS011;13748;52.240;6.002;2022-10-04T22:07:07;11.00;;;6.45;;
25950;SDS011;13748;52.240;6.002;2022-10-04T22:09:35;8.93;;;6.32;;
25950;SDS011;13748;52.240;6.002;2022-10-04T22:12:02;10.15;;;5.97;;
25950;SDS011;13748;52.240;6.002;2022-10-04T22:14:29;9.48;;;7.10;;
25950;SDS011;13748;52.240;6.002;2022-10-04T22:16:58;14.35;;;6.85;;
25950;SDS011;13748;52.240;6.002;2022-10-04T22:19:26;9.55;;;6.40;;
25950;SDS011;13748;52.240;6.002;2022-10-04T22:21:53;12.77;;;6.72;;
25950;SDS011;13748;52.240;6.002;2022-10-04T22:24:21;14.50;;;7.20;;
25950;SDS011;13748;52.240;6.002;2022-10-04T22:26:50;12.13;;;6.75;;
25950;SDS011;13748;52.240;6.002;2022-10-04T22:29:17;11.35;;;6.78;;
25950;SDS011;13748;52.240;6.002;2022-10-04T22:31:50;11.18;;;7.18;;
25950;SDS011;13748;52.240;6.002;2022-10-04T22:34:18;13.37;;;7.53;;
25950;SDS011;13748;52.240;6.002;2022-10-04T22:36:48;12.75;;;7.95;;
25950;SDS011;13748;52.240;6.002;2022-10-04T22:39:18;11.32;;;6.68;;
25950;SDS011;13748;52.240;6.002;2022-10-04T22:41:47;12.00;;;7.78;;
25950;SDS011;13748;52.240;6.002;2022-10-04T22:44:26;11.32;;;7.00;;
25950;SDS011;13748;52.240;6.002;2022-10-04T22:47:05;12.00;;;7.20;;
25950;SDS011;13748;52.240;6.002;2022-10-04T22:49:37;13.48;;;7.45;;
25950;SDS011;13748;52.240;6.002;2022-10-04T22:52:12;13.95;;;6.97;;
25950;SDS011;13748;52.240;6.002;2022-10-04T22:54:43;11.77;;;7.00;;
25950;SDS011;13748;52.240;6.002;2022-10-04T22:57:12;10.75;;;7.07;;
25950;SDS011;13748;52.240;6.002;2022-10-04T22:59:47;9.27;;;6.78;;
25950;SDS011;13748;52.240;6.002;2022-10-04T23:04:53;11.85;;;7.15;;
25950;SDS011;13748;52.240;6.002;2022-10-04T23:07:41;10.80;;;6.68;;
25950;SDS011;13748;52.240;6.002;2022-10-04T23:10:09;7.78;;;6.15;;
25950;SDS011;13748;52.240;6.002;2022-10-04T23:12:37;12.95;;;6.65;;
25950;SDS011;13748;52.240;6.002;2022-10-04T23:15:06;12.13;;;6.78;;
25950;SDS011;13748;52.240;6.002;2022-10-04T23:17:37;12.60;;;7.30;;
25950;SDS011;13748;52.240;6.002;2022-10-04T23:22:41;9.30;;;7.43;;
25950;SDS011;13748;52.240;6.002;2022-10-04T23:25:17;13.65;;;8.02;;
25950;SDS011;13748;52.240;6.002;2022-10-04T23:27:46;11.73;;;7.03;;
25950;SDS011;13748;52.240;6.002;2022-10-04T23:30:17;12.77;;;7.40;;
25950;SDS011;13748;52.240;6.002;2022-10-04T23:32:47;13.75;;;7.38;;
25950;SDS011;13748;52.240;6.002;2022-10-04T23:35:18;14.50;;;7.57;;
25950;SDS011;13748;52.240;6.002;2022-10-04T23:37:47;11.55;;;7.60;;
25950;SDS011;13748;52.240;6.002;2022-10-04T23:40:15;11.52;;;6.97;;
25950;SDS011;13748;52.240;6.002;2022-10-04T23:42:45;10.77;;;7.45;;
25950;SDS011;13748;52.240;6.002;2022-10-04T23:45:19;13.32;;;7.63;;
25950;SDS011;13748;52.240;6.002;2022-10-04T23:47:47;13.95;;;8.40;;
25950;SDS011;13748;52.240;6.002;2022-10-04T23:50:26;11.87;;;7.90;;
25950;SDS011;13748;52.240;6.002;2022-10-04T23:52:57;13.15;;;8.00;;
25950;SDS011;13748;52.240;6.002;2022-10-04T23:55:31;12.07;;;7.60;;
25950;SDS011;13748;52.240;6.002;2022-10-04T23:58:04;10.77;;;7.68;;
